CheckWX is a tool to help pilots better visualize weather data.  It is not intended as a substitute for an official pre-flight weather briefing.

00:50:31 UTC

KBAB METAR
Beale AFB Airport
Marysville, California, USA
Current

29 mins ago

KBAB 240022Z AUTO 02008KT 10SM -TSRA BKN050 BKN065 OVC080 10/08 A3015 RMK AO2 RAB03 TSB22 SLP213 $
Observed
Mar-24 @ 00:22 UTC
Wind
  • 020° at 8 KTS
Visibility
10 SM
Flight Rules
VFR
Conditions
Light Thunderstorm, Light Rain
Cloud Levels
  • Broken at 5,000' AGL
  • Broken at 6,500' AGL
  • Overcast at 8,000' AGL
Temperature
10°C / 50°F
Dewpoint
C / 46°F
Humidity
88%
Altimeter
30.15" Hg
Pressure
1021.3 hPa
Previous

53 mins ago

KBAB 232358Z AUTO 31021KT 10SM VCTS BKN049 BKN080 OVC130 13/06 A3016 RMK AO2 SLP216 T01290060 10171 20122 53002 $
Observed
Mar-23 @ 23:58 UTC
Wind
  • 310° at 21 KTS
Visibility
10 SM
Flight Rules
VFR
Conditions
Area Thunderstorm
Cloud Levels
  • Broken at 4,900' AGL
  • Broken at 8,000' AGL
  • Overcast at 13,000' AGL
Temperature
13°C / 55°F
Dewpoint
C / 43°F
Humidity
63%
Altimeter
30.16" Hg
Pressure
1021.6 hPa
Previous

2 hours ago

KBAB 232258Z AUTO 18006KT 10SM SCT039 BKN050 17/08 A3013 RMK AO2 LTG DSNT N SLP206 T01670076 $
Observed
Mar-23 @ 22:58 UTC
Wind
  • 180° at 6 KTS
Visibility
10 SM
Flight Rules
VFR
Cloud Levels
  • Scattered at 3,900' AGL
  • Broken at 5,000' AGL
Temperature
17°C / 63°F
Dewpoint
C / 46°F
Humidity
56%
Altimeter
30.13" Hg
Pressure
1020.6 hPa